Time;durP1;ratioP1;P1;durP2;ratioP2;P2;SDS_P1;SDS_P2;PMS_P1;PMS_P2;Temp;Humidity;BMP_temperature;BMP_pressure;BME280_temperature;BME280_humidity;BME280_pressure;Samples;Min_cycle;Max_cycle;Signal;HPM_P1;HPM_P2
2023/02/16 00:01:35;;;;;;;13.70;9.17;;;5.30;99.90;;;;;;5052737;28;20816;-87
2023/02/16 00:04:01;;;;;;;16.70;9.20;;;5.20;99.90;;;;;;5018593;28;20174;-87
2023/02/16 00:06:28;;;;;;;14.10;10.77;;;5.20;99.90;;;;;;5051225;28;20544;-87
2023/02/16 00:08:55;;;;;;;11.90;7.67;;;5.20;99.90;;;;;;5051329;28;20177;-88
2023/02/16 00:14:17;;;;;;;10.00;9.00;;;5.10;99.90;;;;;;5068975;28;20192;-87
2023/02/16 00:16:43;;;;;;;11.57;5.50;;;5.20;99.90;;;;;;5034530;28;20608;-86
2023/02/16 00:19:36;;;;;;;16.30;9.30;;;5.20;99.90;;;;;;5050850;28;20326;-87
2023/02/16 00:22:02;;;;;;;11.17;9.27;;;5.10;99.90;;;;;;5042571;28;20254;-87
2023/02/16 00:24:29;;;;;;;15.27;11.13;;;5.10;99.90;;;;;;5068759;28;20173;-87
2023/02/16 00:26:56;;;;;;;10.77;7.97;;;5.10;99.90;;;;;;5052467;28;20174;-86
2023/02/16 00:29:23;;;;;;;12.00;8.23;;;5.10;99.90;;;;;;5070148;28;20766;-86
2023/02/16 00:31:50;;;;;;;18.27;9.20;;;5.10;99.90;;;;;;5070285;28;20301;-86
2023/02/16 00:34:36;;;;;;;7.40;6.60;;;5.10;99.90;;;;;;5052456;28;20267;-87
2023/02/16 00:37:12;;;;;;;9.63;7.50;;;5.10;99.90;;;;;;5052554;28;20187;-87
2023/02/16 00:39:40;;;;;;;11.13;9.77;;;5.10;99.90;;;;;;5052567;28;20268;-86
2023/02/16 00:42:28;;;;;;;11.53;8.67;;;5.10;99.90;;;;;;5069987;28;20670;-87
2023/02/16 00:44:55;;;;;;;11.60;10.37;;;5.00;99.90;;;;;;5069398;28;20260;-87
2023/02/16 00:47:40;;;;;;;12.47;8.53;;;5.10;99.90;;;;;;5068264;28;20449;-86
2023/02/16 00:50:32;;;;;;;9.33;8.40;;;5.00;99.90;;;;;;5070677;28;20203;-87
2023/02/16 00:52:58;;;;;;;9.27;7.87;;;5.00;99.90;;;;;;5042864;28;20201;-87
2023/02/16 00:55:28;;;;;;;11.77;9.07;;;5.00;99.90;;;;;;5068391;28;20173;-87
2023/02/16 00:57:55;;;;;;;20.10;9.23;;;5.00;99.90;;;;;;5050312;28;20227;-87
2023/02/16 01:00:32;;;;;;;15.63;9.13;;;5.00;99.90;;;;;;5068283;28;20201;-87
2023/02/16 01:03:01;;;;;;;12.03;10.77;;;5.00;99.90;;;;;;5068422;28;20661;-87
2023/02/16 01:05:27;;;;;;;10.30;8.07;;;5.00;99.90;;;;;;5068463;28;20173;-87
2023/02/16 01:13:24;;;;;;;8.70;7.93;;;5.00;99.90;;;;;;5054959;28;20166;-88
2023/02/16 01:15:49;;;;;;;24.40;11.33;;;5.00;99.90;;;;;;5069895;28;20183;-87
2023/02/16 01:18:17;;;;;;;10.70;9.60;;;5.00;99.90;;;;;;5051114;28;20635;-87
2023/02/16 01:20:44;;;;;;;16.00;8.97;;;5.00;99.90;;;;;;5068371;28;20239;-86
2023/02/16 01:23:10;;;;;;;10.37;7.57;;;5.00;99.90;;;;;;5069780;28;20205;-87
2023/02/16 01:25:37;;;;;;;8.83;7.67;;;5.00;99.90;;;;;;5052052;28;20250;-85
2023/02/16 01:28:19;;;;;;;7.53;6.83;;;5.00;99.90;;;;;;5069276;28;20605;-86
2023/02/16 01:30:45;;;;;;;17.77;9.40;;;5.00;99.90;;;;;;5051814;28;20223;-86
2023/02/16 01:33:10;;;;;;;10.57;9.50;;;5.10;99.90;;;;;;5051781;28;20193;-86
2023/02/16 01:35:36;;;;;;;13.57;10.17;;;5.10;99.90;;;;;;5052154;28;20181;-87
2023/02/16 01:38:02;;;;;;;10.73;7.43;;;5.10;99.90;;;;;;5035146;28;20273;-86
2023/02/16 01:40:37;;;;;;;9.57;6.63;;;5.10;99.90;;;;;;5051475;28;20228;-87
2023/02/16 01:43:41;;;;;;;7.87;6.87;;;5.10;99.90;;;;;;5051772;28;20688;-86
2023/02/16 01:46:22;;;;;;;18.33;9.93;;;5.20;99.90;;;;;;5051771;28;20169;-86
2023/02/16 01:48:47;;;;;;;13.17;8.93;;;5.20;99.90;;;;;;5069516;28;20809;-86
2023/02/16 01:51:40;;;;;;;12.90;9.10;;;5.20;99.90;;;;;;5018478;28;20231;-88
2023/02/16 01:54:14;;;;;;;17.53;9.07;;;5.20;99.90;;;;;;5051603;28;20166;-86
2023/02/16 01:56:45;;;;;;;8.20;7.50;;;5.30;99.90;;;;;;5051553;28;20165;-87
2023/02/16 01:59:16;;;;;;;11.33;9.80;;;5.20;99.90;;;;;;5055464;28;20166;-87
2023/02/16 02:02:07;;;;;;;14.43;7.93;;;5.30;99.90;;;;;;5055024;28;20283;-86
2023/02/16 02:07:40;;;;;;;13.90;7.77;;;5.30;99.90;;;;;;5073199;28;20181;-86
2023/02/16 02:10:28;;;;;;;12.93;7.60;;;5.30;99.90;;;;;;5055311;28;20169;-85
2023/02/16 02:13:29;;;;;;;13.63;8.23;;;5.40;99.90;;;;;;5072620;28;20291;-86
2023/02/16 02:15:58;;;;;;;11.13;9.87;;;5.40;99.90;;;;;;5072597;28;20261;-86
2023/02/16 02:18:24;;;;;;;6.77;5.50;;;5.40;99.90;;;;;;5038709;28;20181;-87
2023/02/16 02:24:22;;;;;;;18.40;11.20;;;5.60;99.90;;;;;;5072898;28;20326;-87
2023/02/16 02:27:00;;;;;;;9.20;8.23;;;5.60;99.90;;;;;;5054928;28;20184;-87
2023/02/16 02:29:54;;;;;;;16.60;11.77;;;5.60;99.90;;;;;;5054714;28;20229;-86
2023/02/16 02:32:28;;;;;;;11.70;8.47;;;5.70;99.90;;;;;;5072893;28;20178;-87
2023/02/16 02:35:34;;;;;;;14.07;9.00;;;5.70;99.90;;;;;;5054559;28;20181;-87
2023/02/16 02:38:39;;;;;;;8.37;7.50;;;5.80;99.90;;;;;;5071609;28;20264;-87
2023/02/16 02:41:17;;;;;;;14.13;8.40;;;5.90;99.90;;;;;;5042026;28;20219;-86
2023/02/16 02:43:58;;;;;;;9.67;8.77;;;5.90;99.90;;;;;;5072014;28;20226;-87
2023/02/16 02:46:29;;;;;;;15.50;9.50;;;5.90;99.90;;;;;;5072127;28;20161;-88
2023/02/16 02:48:54;;;;;;;11.60;9.30;;;5.90;99.90;;;;;;5053950;28;20732;-87
2023/02/16 02:51:29;;;;;;;17.83;9.00;;;5.90;99.90;;;;;;5054046;28;20187;-87
2023/02/16 03:00:40;;;;;;;8.30;6.00;;;6.00;99.90;;;;;;5070838;28;20201;-86
2023/02/16 03:03:39;;;;;;;15.80;10.60;;;6.00;99.90;;;;;;5071443;28;20173;-86
2023/02/16 03:06:12;;;;;;;11.17;7.23;;;6.00;99.90;;;;;;5066593;28;20190;-86
2023/02/16 03:08:42;;;;;;;9.77;8.73;;;6.10;99.90;;;;;;5053379;28;20196;-86
2023/02/16 03:14:17;;;;;;;11.93;10.30;;;6.10;99.90;;;;;;5071208;28;20174;-87
2023/02/16 03:16:44;;;;;;;10.77;8.57;;;6.10;99.90;;;;;;5053571;28;20168;-87
2023/02/16 03:30:19;;;;;;;9.47;8.30;;;6.20;99.90;;;;;;5071637;28;20777;-86
2023/02/16 03:32:46;;;;;;;9.87;8.67;;;6.20;99.90;;;;;;5071118;28;20181;-87
2023/02/16 03:35:12;;;;;;;11.57;8.97;;;6.20;99.90;;;;;;5037292;28;20182;-87
2023/02/16 03:37:40;;;;;;;13.97;9.03;;;6.20;99.90;;;;;;5036826;28;20268;-87
2023/02/16 03:40:28;;;;;;;12.13;11.10;;;6.20;99.90;;;;;;5053499;28;20245;-86
2023/02/16 03:42:59;;;;;;;12.73;9.63;;;6.30;99.90;;;;;;5053267;28;20178;-86
2023/02/16 03:45:26;;;;;;;8.73;7.87;;;6.30;99.90;;;;;;5071239;28;20181;-85
2023/02/16 03:47:52;;;;;;;8.17;7.40;;;6.30;99.90;;;;;;5070933;28;20178;-86
2023/02/16 03:50:18;;;;;;;11.70;10.57;;;6.30;99.90;;;;;;5053266;28;20192;-87
2023/02/16 03:52:44;;;;;;;18.80;13.07;;;6.40;99.90;;;;;;5053236;28;20182;-86
2023/02/16 03:55:09;;;;;;;11.87;8.57;;;6.40;99.90;;;;;;5053258;28;20658;-87
2023/02/16 03:57:38;;;;;;;14.27;8.50;;;6.30;99.90;;;;;;5053568;28;20234;-88
2023/02/16 04:00:04;;;;;;;17.07;9.97;;;6.30;99.90;;;;;;5053171;28;20308;-87
2023/02/16 04:02:30;;;;;;;11.47;8.90;;;6.30;99.90;;;;;;5053153;28;20185;-86
2023/02/16 04:04:55;;;;;;;10.67;9.47;;;6.40;99.90;;;;;;5053227;28;20192;-87
2023/02/16 04:07:21;;;;;;;6.50;5.70;;;6.40;99.90;;;;;;5052949;28;20184;-86
2023/02/16 04:09:47;;;;;;;14.37;10.30;;;6.40;99.90;;;;;;5053031;28;20193;-86
2023/02/16 04:14:57;;;;;;;15.77;10.27;;;6.40;99.90;;;;;;5055707;28;20181;-86
2023/02/16 04:17:23;;;;;;;17.23;9.67;;;6.40;99.90;;;;;;5070753;28;20188;-87
2023/02/16 04:19:49;;;;;;;12.27;7.90;;;6.40;99.90;;;;;;5052353;28;20280;-87
2023/02/16 04:22:15;;;;;;;9.77;8.53;;;6.40;99.90;;;;;;5070692;28;20253;-87
2023/02/16 04:24:40;;;;;;;14.83;9.67;;;6.40;99.90;;;;;;5036824;28;20639;-86
2023/02/16 04:27:06;;;;;;;9.60;8.37;;;6.40;99.90;;;;;;5070764;28;20177;-87
2023/02/16 04:29:32;;;;;;;13.43;9.63;;;6.40;99.90;;;;;;5036163;28;20229;-87
2023/02/16 04:31:58;;;;;;;12.63;10.27;;;6.40;99.90;;;;;;5035974;28;20189;-87
2023/02/16 04:34:23;;;;;;;12.87;8.30;;;6.40;99.90;;;;;;5019569;28;20326;-86
2023/02/16 04:36:49;;;;;;;14.43;10.80;;;6.40;99.90;;;;;;5035733;28;20206;-87
2023/02/16 04:39:15;;;;;;;18.70;9.87;;;6.40;99.90;;;;;;5035634;28;20177;-86
2023/02/16 04:41:40;;;;;;;12.63;7.80;;;6.40;99.90;;;;;;5052693;28;20213;-86
2023/02/16 04:44:06;;;;;;;14.70;7.90;;;6.40;99.90;;;;;;5052975;28;20197;-87
2023/02/16 04:46:32;;;;;;;13.93;10.00;;;6.40;99.90;;;;;;5035840;28;20181;-86
2023/02/16 04:48:58;;;;;;;17.73;10.77;;;6.40;99.90;;;;;;5052238;28;20177;-88
2023/02/16 04:51:24;;;;;;;8.40;7.43;;;6.40;99.90;;;;;;5035360;28;20239;-87
2023/02/16 04:53:49;;;;;;;15.40;9.17;;;6.40;99.90;;;;;;5069682;28;20177;-87
2023/02/16 04:56:15;;;;;;;11.23;10.13;;;6.40;99.90;;;;;;5035643;28;20272;-87
2023/02/16 04:58:41;;;;;;;14.63;10.67;;;6.40;99.90;;;;;;5035546;28;20488;-87
2023/02/16 05:01:08;;;;;;;16.57;10.47;;;6.40;99.90;;;;;;5051931;28;20540;-86
2023/02/16 05:03:33;;;;;;;12.80;10.27;;;6.40;99.90;;;;;;5052090;28;20181;-86
2023/02/16 05:05:59;;;;;;;13.67;8.40;;;6.40;99.90;;;;;;5052134;28;20181;-87
2023/02/16 05:08:25;;;;;;;20.67;14.17;;;6.40;99.90;;;;;;5052035;28;20204;-86
2023/02/16 05:16:21;;;;;;;15.47;11.10;;;6.40;99.90;;;;;;5054701;28;20178;-87
2023/02/16 05:18:46;;;;;;;22.13;10.87;;;6.40;99.90;;;;;;5069740;28;20187;-87
2023/02/16 05:21:30;;;;;;;9.40;6.73;;;6.40;99.90;;;;;;5051655;28;20217;-86
2023/02/16 05:24:01;;;;;;;12.87;8.57;;;6.50;99.90;;;;;;5039952;28;20252;-86
2023/02/16 05:26:27;;;;;;;21.50;10.23;;;6.40;99.90;;;;;;5051498;28;20170;-86
2023/02/16 05:28:54;;;;;;;15.53;9.63;;;6.40;99.90;;;;;;5068840;28;20675;-87
2023/02/16 05:31:21;;;;;;;13.97;10.47;;;6.40;99.90;;;;;;5069190;28;20185;-87
2023/02/16 05:33:47;;;;;;;10.97;9.30;;;6.40;99.90;;;;;;5055036;28;20232;-86
2023/02/16 05:36:13;;;;;;;10.23;9.37;;;6.50;99.90;;;;;;5073894;28;20200;-87
2023/02/16 05:38:38;;;;;;;11.80;8.33;;;6.40;99.90;;;;;;5073236;28;20211;-89
2023/02/16 05:41:04;;;;;;;11.03;9.90;;;6.40;99.90;;;;;;5055796;28;20242;-86
2023/02/16 05:43:30;;;;;;;17.60;11.90;;;6.40;99.90;;;;;;5039823;28;20216;-86
2023/02/16 05:45:55;;;;;;;10.53;9.00;;;6.40;99.90;;;;;;5039377;28;20265;-87
2023/02/16 05:48:21;;;;;;;10.60;9.50;;;6.40;99.90;;;;;;5056043;28;20634;-86
2023/02/16 05:50:47;;;;;;;12.13;6.90;;;6.50;99.90;;;;;;5039562;28;20272;-87
2023/02/16 05:53:12;;;;;;;13.23;11.90;;;6.50;99.90;;;;;;5039277;28;20182;-87
2023/02/16 05:55:38;;;;;;;16.17;11.10;;;6.50;99.90;;;;;;5055658;28;20342;-86
2023/02/16 05:58:04;;;;;;;12.40;10.43;;;6.50;99.90;;;;;;5039073;28;20184;-87
2023/02/16 06:00:32;;;;;;;15.53;8.70;;;6.60;99.90;;;;;;5055877;28;20205;-87
2023/02/16 06:03:01;;;;;;;15.10;10.03;;;6.60;99.90;;;;;;5055446;28;20682;-87
2023/02/16 06:05:27;;;;;;;13.30;8.20;;;6.60;99.90;;;;;;5055741;28;20211;-88
2023/02/16 06:07:53;;;;;;;12.80;9.10;;;6.60;99.90;;;;;;5039081;28;20268;-87
2023/02/16 06:10:18;;;;;;;23.93;10.97;;;6.60;99.90;;;;;;5022367;28;20628;-87
2023/02/16 06:12:44;;;;;;;14.77;12.70;;;6.60;99.90;;;;;;5054763;28;20218;-89
2023/02/16 06:15:11;;;;;;;11.00;8.10;;;6.70;99.90;;;;;;5055023;28;20181;-86
2023/02/16 06:17:36;;;;;;;18.00;7.60;;;6.70;99.90;;;;;;5073054;28;20557;-87
2023/02/16 06:20:03;;;;;;;18.77;8.47;;;6.80;99.90;;;;;;5072864;28;20209;-89
2023/02/16 06:22:29;;;;;;;18.43;12.57;;;6.80;99.90;;;;;;5038816;28;20181;-86
2023/02/16 06:24:54;;;;;;;10.47;8.40;;;6.90;99.90;;;;;;5021938;28;20181;-87
2023/02/16 06:27:20;;;;;;;10.10;9.07;;;6.90;99.90;;;;;;5073215;28;20211;-87
2023/02/16 06:29:46;;;;;;;15.47;9.70;;;6.90;99.90;;;;;;5054947;28;20565;-87
2023/02/16 06:32:11;;;;;;;15.03;8.17;;;6.90;99.90;;;;;;5054933;28;20631;-88
2023/02/16 06:34:37;;;;;;;11.57;8.07;;;6.90;99.90;;;;;;5054857;28;20188;-86
2023/02/16 06:37:03;;;;;;;19.87;11.90;;;6.90;99.90;;;;;;5038237;28;20259;-88
2023/02/16 06:39:29;;;;;;;13.80;9.07;;;6.90;99.90;;;;;;5054921;28;20212;-86
2023/02/16 06:41:54;;;;;;;9.77;8.80;;;6.90;99.90;;;;;;5072254;28;20245;-89
2023/02/16 06:44:20;;;;;;;12.10;10.17;;;7.00;99.90;;;;;;5053380;28;20185;-87
2023/02/16 06:46:46;;;;;;;19.10;9.67;;;7.00;99.90;;;;;;5038484;28;20263;-87
2023/02/16 06:49:17;;;;;;;12.40;10.63;;;7.00;99.90;;;;;;5054447;28;20622;-89
2023/02/16 06:51:43;;;;;;;28.07;10.27;;;7.10;99.90;;;;;;5072703;28;20235;-86
2023/02/16 06:54:09;;;;;;;18.57;10.10;;;7.10;99.90;;;;;;5038031;28;20177;-88
2023/02/16 06:56:35;;;;;;;13.20;10.23;;;7.10;99.90;;;;;;5054919;28;20185;-86
2023/02/16 06:59:02;;;;;;;28.60;11.67;;;7.20;99.90;;;;;;5072243;28;20180;-89
2023/02/16 07:01:28;;;;;;;17.33;9.97;;;7.20;99.90;;;;;;5072147;28;20288;-88
2023/02/16 07:03:55;;;;;;;15.37;11.63;;;7.20;99.90;;;;;;5054217;28;20181;-87
2023/02/16 07:06:26;;;;;;;18.53;13.67;;;7.30;99.90;;;;;;5072240;28;20185;-88
2023/02/16 07:08:52;;;;;;;12.50;9.57;;;7.40;99.90;;;;;;5072402;28;20172;-89
2023/02/16 07:11:19;;;;;;;16.20;13.67;;;7.40;99.90;;;;;;5054674;28;20193;-88
2023/02/16 07:13:46;;;;;;;16.03;12.40;;;7.50;99.90;;;;;;5037431;28;20229;-86
2023/02/16 07:16:13;;;;;;;18.40;12.17;;;7.60;99.90;;;;;;5071525;28;20173;-87
2023/02/16 07:18:39;;;;;;;21.00;10.03;;;7.60;99.90;;;;;;5054012;28;20192;-88
2023/02/16 07:21:05;;;;;;;16.43;12.37;;;7.60;99.90;;;;;;5037147;28;20213;-88
2023/02/16 07:23:31;;;;;;;12.83;11.47;;;7.70;99.90;;;;;;5053884;28;20178;-87
2023/02/16 07:25:57;;;;;;;13.57;11.90;;;7.70;99.90;;;;;;5053930;28;20189;-87
2023/02/16 07:28:23;;;;;;;19.07;12.70;;;7.80;99.90;;;;;;5020964;28;20588;-87
2023/02/16 07:30:49;;;;;;;21.07;14.40;;;7.80;99.90;;;;;;5053800;28;20181;-87
2023/02/16 07:33:15;;;;;;;19.30;11.40;;;7.80;99.90;;;;;;5037265;28;20235;-87
2023/02/16 07:35:41;;;;;;;17.27;12.80;;;7.90;99.90;;;;;;5054130;28;20181;-88
2023/02/16 07:38:07;;;;;;;20.10;15.10;;;7.90;99.90;;;;;;5053351;28;20591;-86
2023/02/16 07:40:33;;;;;;;17.50;10.87;;;7.90;99.90;;;;;;5036897;28;20220;-87
2023/02/16 07:43:00;;;;;;;15.83;14.17;;;8.00;99.90;;;;;;5054083;28;20174;-87
2023/02/16 07:45:26;;;;;;;23.37;12.77;;;8.00;99.90;;;;;;5053476;28;20643;-88
2023/02/16 07:47:52;;;;;;;21.77;15.40;;;8.00;99.90;;;;;;5053606;28;20631;-87
2023/02/16 07:50:17;;;;;;;15.37;13.90;;;8.00;99.90;;;;;;5053531;28;20181;-87
2023/02/16 07:52:43;;;;;;;16.43;12.20;;;8.00;99.90;;;;;;5037088;28;20639;-87
2023/02/16 07:55:10;;;;;;;20.47;12.43;;;7.90;99.90;;;;;;5052823;28;20758;-87
2023/02/16 07:57:38;;;;;;;18.67;11.13;;;7.90;99.90;;;;;;5070507;28;20268;-86
2023/02/16 08:00:07;;;;;;;23.60;15.07;;;7.90;99.90;;;;;;5070206;28;20292;-85
2023/02/16 08:02:33;;;;;;;14.53;12.43;;;7.90;99.90;;;;;;5070809;28;20185;-85
2023/02/16 08:04:59;;;;;;;11.63;10.47;;;7.90;99.90;;;;;;5053911;28;20189;-87
2023/02/16 08:07:26;;;;;;;19.77;12.40;;;7.90;99.90;;;;;;5053407;28;20181;-86
2023/02/16 08:09:52;;;;;;;33.13;11.80;;;7.90;99.90;;;;;;5071274;28;20185;-85
2023/02/16 08:12:18;;;;;;;12.93;11.53;;;7.90;99.90;;;;;;5070756;28;20563;-85
2023/02/16 08:14:47;;;;;;;14.63;11.77;;;8.00;99.90;;;;;;5035660;28;20246;-86
2023/02/16 08:17:15;;;;;;;16.87;11.73;;;7.90;99.90;;;;;;5069561;28;20173;-88
2023/02/16 08:19:40;;;;;;;18.73;10.13;;;7.90;99.90;;;;;;5051802;28;20191;-87
2023/02/16 08:22:08;;;;;;;19.00;12.47;;;8.00;99.90;;;;;;5070431;28;20186;-86
2023/02/16 08:24:34;;;;;;;23.80;12.87;;;8.00;99.90;;;;;;5053296;28;20187;-88
2023/02/16 08:27:03;;;;;;;27.23;11.27;;;8.00;99.90;;;;;;5053186;28;20207;-87
2023/02/16 08:29:29;;;;;;;34.17;18.93;;;8.00;99.90;;;;;;5070253;28;20279;-88
2023/02/16 08:31:55;;;;;;;15.83;11.70;;;8.10;99.90;;;;;;5053306;28;20638;-86
2023/02/16 08:34:22;;;;;;;30.83;15.03;;;8.10;99.90;;;;;;5052659;28;20185;-87
2023/02/16 08:36:55;;;;;;;27.30;17.80;;;8.10;99.90;;;;;;5051904;28;20226;-87
2023/02/16 08:39:27;;;;;;;63.67;36.10;;;8.20;99.90;;;;;;5070971;28;20166;-87
2023/02/16 08:41:53;;;;;;;22.30;15.57;;;8.30;99.90;;;;;;5052821;28;20202;-87
2023/02/16 08:44:22;;;;;;;17.03;12.60;;;8.30;99.90;;;;;;5052632;28;20173;-86
2023/02/16 08:46:49;;;;;;;17.73;12.80;;;8.40;99.90;;;;;;5052113;28;20189;-87
2023/02/16 08:49:17;;;;;;;20.23;12.60;;;8.50;99.90;;;;;;5068340;28;20235;-87
2023/02/16 08:51:48;;;;;;;24.87;12.20;;;8.60;99.90;;;;;;5068804;28;20177;-87
2023/02/16 08:54:17;;;;;;;22.33;12.80;;;8.80;99.90;;;;;;5051034;28;20174;-87
2023/02/16 08:56:45;;;;;;;20.17;12.07;;;8.90;99.90;;;;;;5068759;28;20178;-87
2023/02/16 08:59:13;;;;;;;20.33;13.53;;;9.00;99.90;;;;;;5050571;28;20188;-87
2023/02/16 09:01:40;;;;;;;23.30;12.73;;;9.20;99.90;;;;;;5068597;28;20304;-88
2023/02/16 09:04:06;;;;;;;22.93;10.33;;;9.20;99.90;;;;;;5050782;28;20258;-88
2023/02/16 09:06:36;;;;;;;18.37;10.87;;;9.30;99.90;;;;;;5050570;28;20209;-88
2023/02/16 09:09:03;;;;;;;23.23;11.03;;;9.40;99.90;;;;;;5051928;28;20215;-88
2023/02/16 09:11:29;;;;;;;9.77;6.83;;;9.40;99.90;;;;;;5019658;28;20185;-89
2023/02/16 09:13:56;;;;;;;20.20;10.53;;;9.40;99.90;;;;;;5051792;28;20611;-89
2023/02/16 09:16:23;;;;;;;19.23;10.00;;;9.40;99.90;;;;;;5052372;28;20188;-88
2023/02/16 09:18:50;;;;;;;18.50;9.00;;;9.40;99.90;;;;;;5036203;28;20357;-88
2023/02/16 09:21:20;;;;;;;14.50;9.33;;;9.40;99.90;;;;;;5069562;28;20220;-89
2023/02/16 09:23:47;;;;;;;14.13;8.23;;;9.40;99.90;;;;;;5069320;28;20182;-89
2023/02/16 09:26:21;;;;;;;12.90;8.60;;;9.40;99.90;;;;;;5068533;28;20174;-89
2023/02/16 09:28:49;;;;;;;17.83;9.67;;;9.40;99.90;;;;;;5068395;28;20232;-88
2023/02/16 09:31:22;;;;;;;13.53;9.40;;;9.40;99.90;;;;;;5068324;28;20833;-88
2023/02/16 09:33:48;;;;;;;17.23;8.23;;;9.50;99.90;;;;;;5050810;28;20623;-89
2023/02/16 09:36:14;;;;;;;31.40;8.40;;;9.50;99.90;;;;;;5068060;28;20242;-89
2023/02/16 09:38:40;;;;;;;23.97;9.63;;;9.50;99.90;;;;;;5050847;28;20182;-88
2023/02/16 09:41:27;;;;;;;21.53;9.67;;;9.60;99.90;;;;;;5067883;28;20258;-89
2023/02/16 09:44:02;;;;;;;15.93;9.33;;;9.70;99.90;;;;;;5050710;28;20177;-88
2023/02/16 09:46:30;;;;;;;12.60;7.53;;;9.80;99.90;;;;;;5051522;28;20176;-87
2023/02/16 09:48:56;;;;;;;17.47;9.40;;;9.70;99.90;;;;;;5052164;28;20209;-88
2023/02/16 09:51:28;;;;;;;22.57;10.10;;;9.70;99.90;;;;;;5051952;28;20239;-88
2023/02/16 09:54:21;;;;;;;14.63;10.67;;;9.70;99.90;;;;;;5052016;28;20292;-88
2023/02/16 09:56:56;;;;;;;15.40;8.00;;;9.60;99.90;;;;;;5051978;28;20583;-88
2023/02/16 09:59:49;;;;;;;22.80;12.30;;;9.50;99.90;;;;;;5051860;28;20259;-88
2023/02/16 10:02:31;;;;;;;15.00;9.70;;;9.60;99.90;;;;;;5051563;28;20269;-87
2023/02/16 10:05:19;;;;;;;12.30;7.83;;;9.60;99.90;;;;;;5069515;28;20611;-87
2023/02/16 10:08:08;;;;;;;23.27;9.00;;;9.70;99.90;;;;;;5051911;28;20260;-88
2023/02/16 10:10:44;;;;;;;13.33;7.60;;;9.80;99.90;;;;;;5069794;28;20162;-88
2023/02/16 10:13:31;;;;;;;11.80;9.03;;;9.80;99.90;;;;;;5069703;28;20173;-88
2023/02/16 10:16:00;;;;;;;23.80;10.13;;;9.90;99.90;;;;;;5051887;28;20657;-87
2023/02/16 10:18:38;;;;;;;17.13;8.13;;;9.90;99.90;;;;;;5052679;28;20515;-89
2023/02/16 10:21:20;;;;;;;11.50;10.13;;;10.00;99.90;;;;;;5073536;28;20213;-89
2023/02/16 10:23:55;;;;;;;14.03;10.80;;;10.10;99.90;;;;;;5073422;28;20178;-89
2023/02/16 10:26:30;;;;;;;24.60;11.77;;;10.20;99.90;;;;;;5055951;28;20226;-89
2023/02/16 10:29:02;;;;;;;24.70;12.07;;;10.20;99.90;;;;;;5055006;28;20225;-88
2023/02/16 10:31:39;;;;;;;16.43;10.90;;;10.20;99.90;;;;;;5072864;28;20229;-87
2023/02/16 10:34:27;;;;;;;14.10;10.93;;;10.10;99.90;;;;;;5073569;28;20250;-89
2023/02/16 10:37:06;;;;;;;17.90;11.90;;;10.10;99.90;;;;;;5055648;28;20170;-88
2023/02/16 10:39:45;;;;;;;13.67;11.97;;;10.10;99.90;;;;;;5055436;28;20364;-89
2023/02/16 10:42:37;;;;;;;20.13;10.93;;;10.10;99.90;;;;;;5073350;28;20197;-90
2023/02/16 10:45:38;;;;;;;14.67;10.13;;;10.20;99.90;;;;;;5050555;28;20185;-89
2023/02/16 10:48:04;;;;;;;14.33;10.97;;;10.10;99.90;;;;;;5055402;28;20675;-89
2023/02/16 10:50:41;;;;;;;16.80;11.07;;;10.10;99.90;;;;;;5039005;28;20216;-89
2023/02/16 10:53:36;;;;;;;15.03;9.03;;;10.20;99.90;;;;;;5072240;28;20193;-89
2023/02/16 10:56:30;;;;;;;14.77;8.10;;;10.30;99.90;;;;;;5046273;28;20699;-89
2023/02/16 10:58:58;;;;;;;19.27;11.43;;;10.40;99.90;;;;;;5055376;28;20635;-89
2023/02/16 11:01:38;;;;;;;18.50;10.50;;;10.50;99.90;;;;;;5055076;28;20711;-88
2023/02/16 11:04:05;;;;;;;17.33;8.97;;;10.40;99.90;;;;;;5072778;28;20193;-88
2023/02/16 11:06:31;;;;;;;10.40;8.13;;;10.50;99.90;;;;;;5054877;28;20173;-89
2023/02/16 11:09:01;;;;;;;14.07;10.47;;;10.70;99.90;;;;;;5038456;28;20188;-89
2023/02/16 11:11:36;;;;;;;27.63;10.70;;;10.70;99.90;;;;;;5038678;28;20185;-88
2023/02/16 11:14:23;;;;;;;16.73;11.53;;;10.80;99.90;;;;;;5054542;28;20168;-88
2023/02/16 11:17:03;;;;;;;13.20;8.73;;;10.90;99.90;;;;;;5054666;28;20176;-88
2023/02/16 11:19:32;;;;;;;25.87;13.00;;;10.70;99.90;;;;;;5072241;28;20169;-89
2023/02/16 11:21:58;;;;;;;13.17;10.60;;;10.80;99.90;;;;;;5038641;28;20209;-89
2023/02/16 11:24:28;;;;;;;17.87;11.13;;;10.80;99.90;;;;;;5054462;28;20639;-89
2023/02/16 11:27:18;;;;;;;19.47;10.37;;;10.70;99.90;;;;;;5072208;28;20177;-88
2023/02/16 11:29:47;;;;;;;17.40;9.80;;;10.70;99.90;;;;;;5053441;28;20290;-88
2023/02/16 11:32:15;;;;;;;17.30;10.80;;;10.80;99.90;;;;;;5054101;28;20686;-89
2023/02/16 11:34:52;;;;;;;29.10;13.07;;;10.90;99.90;;;;;;5053153;28;20181;-89
2023/02/16 11:37:33;;;;;;;20.47;10.00;;;11.00;99.90;;;;;;5037030;28;20166;-88
2023/02/16 11:40:25;;;;;;;14.57;9.67;;;11.00;99.90;;;;;;5054338;28;20177;-89
2023/02/16 11:42:54;;;;;;;16.57;11.03;;;11.00;99.90;;;;;;5054040;28;20502;-89
2023/02/16 11:45:32;;;;;;;15.90;10.70;;;11.00;99.90;;;;;;5054267;28;20173;-88
2023/02/16 11:48:11;;;;;;;16.57;10.20;;;11.00;99.90;;;;;;5054240;28;20173;-87
2023/02/16 11:50:39;;;;;;;23.70;8.53;;;11.30;99.90;;;;;;5053667;28;20177;-89
2023/02/16 11:53:08;;;;;;;10.83;9.43;;;11.50;99.90;;;;;;5070957;28;20181;-89
2023/02/16 11:55:36;;;;;;;13.33;9.37;;;11.90;99.90;;;;;;5053057;28;20260;-89
2023/02/16 11:58:17;;;;;;;17.20;11.13;;;11.80;99.90;;;;;;5053635;28;20188;-89
2023/02/16 12:01:27;;;;;;;13.70;8.53;;;11.80;99.90;;;;;;5070994;28;20213;-88
2023/02/16 12:04:06;;;;;;;20.37;11.20;;;11.80;99.90;;;;;;5053358;28;20808;-89
2023/02/16 12:06:50;;;;;;;18.83;13.37;;;11.80;99.90;;;;;;5053581;28;20638;-89
2023/02/16 12:09:28;;;;;;;20.93;12.53;;;12.00;99.90;;;;;;5071287;28;20197;-89
2023/02/16 12:12:02;;;;;;;15.70;10.70;;;12.10;99.90;;;;;;5053780;28;20200;-89
2023/02/16 12:14:50;;;;;;;19.47;10.07;;;12.40;99.90;;;;;;5071096;28;20657;-89
2023/02/16 12:17:31;;;;;;;15.83;10.07;;;12.70;99.90;;;;;;5071309;28;20248;-89
2023/02/16 12:20:21;;;;;;;19.00;10.07;;;12.80;99.90;;;;;;5053603;28;20196;-90
2023/02/16 12:22:50;;;;;;;22.20;10.33;;;12.70;99.90;;;;;;5053555;28;20181;-89
2023/02/16 12:25:42;;;;;;;14.40;10.07;;;12.40;99.90;;;;;;5053358;28;20196;-88
2023/02/16 12:28:30;;;;;;;17.03;11.73;;;12.40;99.90;;;;;;5070935;28;20196;-89
2023/02/16 12:31:06;;;;;;;14.40;10.20;;;12.20;99.90;;;;;;5070806;28;20233;-89
2023/02/16 12:33:34;;;;;;;15.53;9.77;;;12.00;99.90;;;;;;5070832;28;20172;-89
2023/02/16 12:36:14;;;;;;;20.93;11.60;;;11.90;99.90;;;;;;5071077;28;20173;-89
2023/02/16 12:38:43;;;;;;;23.83;9.57;;;11.90;99.90;;;;;;5053103;28;20279;-89
2023/02/16 12:41:23;;;;;;;19.63;9.37;;;12.00;99.90;;;;;;5052789;28;20206;-89
2023/02/16 12:44:02;;;;;;;15.73;10.53;;;11.90;99.90;;;;;;5070625;28;20430;-88
2023/02/16 12:46:35;;;;;;;13.20;7.30;;;11.80;99.90;;;;;;5052919;28;20164;-88
2023/02/16 12:49:28;;;;;;;16.37;8.27;;;11.80;99.90;;;;;;5070479;28;20611;-88
2023/02/16 12:52:05;;;;;;;18.27;8.70;;;11.80;99.90;;;;;;5070517;28;20173;-87
2023/02/16 12:54:48;;;;;;;13.57;8.97;;;11.70;99.90;;;;;;5052464;28;20161;-87
2023/02/16 12:57:22;;;;;;;13.93;9.20;;;11.90;99.90;;;;;;5052625;28;20165;-85
2023/02/16 12:59:56;;;;;;;15.13;10.43;;;11.90;99.90;;;;;;5070058;28;20651;-87
2023/02/16 13:02:36;;;;;;;15.00;9.93;;;11.80;99.90;;;;;;5069894;28;20212;-86
2023/02/16 13:05:22;;;;;;;18.20;11.00;;;11.90;99.90;;;;;;5069837;28;20169;-87
2023/02/16 13:08:05;;;;;;;14.67;9.77;;;12.00;99.90;;;;;;5070629;28;20337;-87
2023/02/16 13:10:54;;;;;;;17.37;13.27;;;11.90;99.90;;;;;;5070081;28;20247;-86
2023/02/16 13:13:28;;;;;;;26.53;11.10;;;12.00;99.90;;;;;;5051874;28;20176;-87
2023/02/16 13:16:15;;;;;;;14.83;7.83;;;11.90;99.90;;;;;;5052420;28;20283;-87
2023/02/16 13:18:43;;;;;;;19.57;12.90;;;11.90;99.90;;;;;;5070037;28;20165;-87
2023/02/16 13:21:21;;;;;;;20.90;13.80;;;11.90;99.90;;;;;;5051628;28;20729;-86
2023/02/16 13:23:57;;;;;;;27.73;18.77;;;11.80;99.90;;;;;;5051906;28;20215;-87
2023/02/16 13:26:35;;;;;;;16.83;10.33;;;11.70;99.90;;;;;;5052265;28;20177;-87
2023/02/16 13:29:22;;;;;;;25.13;16.20;;;11.60;99.90;;;;;;5052472;28;20157;-87
2023/02/16 13:31:59;;;;;;;27.57;13.53;;;11.40;99.90;;;;;;5052116;28;20247;-88
2023/02/16 13:35:03;;;;;;;17.53;11.53;;;11.40;99.90;;;;;;5052538;28;20189;-89
2023/02/16 13:38:06;;;;;;;24.57;13.30;;;11.40;99.90;;;;;;5052219;28;20196;-88
2023/02/16 13:40:58;;;;;;;27.40;15.63;;;11.30;99.90;;;;;;5052616;28;20704;-88
2023/02/16 13:43:32;;;;;;;18.83;11.50;;;11.20;99.90;;;;;;5069736;28;20177;-89
2023/02/16 13:46:02;;;;;;;15.40;10.20;;;11.10;99.90;;;;;;5052118;28;20173;-88
2023/02/16 13:48:45;;;;;;;17.77;10.17;;;10.90;99.90;;;;;;5052288;28;20615;-88
2023/02/16 13:51:20;;;;;;;20.23;11.37;;;10.80;99.90;;;;;;5069793;28;20771;-88